Time;durP1;ratioP1;P1;durP2;ratioP2;P2;SDS_P1;SDS_P2;PMS_P1;PMS_P2;Temp;Humidity;BMP_temperature;BMP_pressure;BME280_temperature;BME280_humidity;BME280_pressure;Samples;Min_cycle;Max_cycle;Signal;HPM_P1;HPM_P2
2023/08/31 00:02:01;;;;;;;4.10;3.70;;;;;;;14.85;69.17;100743.38;5058429;28;20427;-66
2023/08/31 00:04:26;;;;;;;5.70;3.38;;;;;;;14.89;69.33;100755.66;5056461;28;20412;-66
2023/08/31 00:06:51;;;;;;;4.25;3.35;;;;;;;14.89;69.40;100750.91;5052326;28;20020;-66
2023/08/31 00:09:18;;;;;;;3.92;3.35;;;;;;;14.88;69.31;100754.84;5052656;28;20037;-66
2023/08/31 00:11:44;;;;;;;6.30;3.90;;;;;;;14.85;69.46;100749.81;5052107;28;20033;-66
2023/08/31 00:14:09;;;;;;;4.25;3.50;;;;;;;14.85;69.32;100746.19;5052287;28;20032;-65
2023/08/31 00:16:36;;;;;;;6.65;4.50;;;;;;;14.78;69.44;100746.50;5051448;28;20549;-66
2023/08/31 00:19:02;;;;;;;4.18;3.78;;;;;;;14.73;69.88;100752.06;5058067;28;20045;-66
2023/08/31 00:21:28;;;;;;;4.35;3.92;;;;;;;14.71;69.50;100752.38;5051987;28;20021;-66
2023/08/31 00:23:54;;;;;;;4.78;3.53;;;;;;;14.68;69.72;100752.94;5083921;28;20087;-67
2023/08/31 00:26:19;;;;;;;4.80;3.95;;;;;;;14.64;69.91;100748.19;5092283;28;20099;-66
2023/08/31 00:28:45;;;;;;;4.75;4.10;;;;;;;14.62;70.07;100747.63;5073415;28;20135;-67
2023/08/31 00:31:10;;;;;;;6.20;4.18;;;;;;;14.67;69.87;100745.69;5070859;28;20024;-66
2023/08/31 00:33:38;;;;;;;4.68;4.28;;;;;;;14.66;69.70;100743.19;5064762;28;20115;-67
2023/08/31 00:36:03;;;;;;;8.32;4.65;;;;;;;14.65;69.90;100750.69;5057045;28;20113;-67
2023/08/31 00:38:29;;;;;;;5.35;4.50;;;;;;;14.66;69.57;100748.78;5054682;28;20553;-67
2023/08/31 00:40:55;;;;;;;6.28;4.97;;;;;;;14.71;69.73;100740.38;5071881;28;20032;-66
2023/08/31 00:43:20;;;;;;;5.53;4.45;;;;;;;14.64;69.82;100748.19;5053052;28;20374;-67
2023/08/31 00:45:51;;;;;;;6.75;4.20;;;;;;;14.66;69.73;100751.56;5066397;28;20028;-67
2023/08/31 00:48:18;;;;;;;7.30;4.95;;;;;;;14.64;69.58;100742.63;5067435;28;20036;-67
2023/08/31 00:50:45;;;;;;;7.03;4.20;;;;;;;14.65;69.46;100749.88;5051558;28;20561;-66
2023/08/31 00:53:10;;;;;;;6.90;4.75;;;;;;;14.61;69.62;100748.75;5051425;28;20040;-66
2023/08/31 00:55:36;;;;;;;5.68;4.47;;;;;;;14.59;69.50;100745.44;5063655;28;20432;-66
2023/08/31 00:58:01;;;;;;;6.80;4.80;;;;;;;14.52;69.80;100736.50;5067523;28;20032;-66
2023/08/31 01:00:44;;;;;;;7.05;4.63;;;;;;;14.47;70.12;100740.09;5068274;28;20029;-67
2023/08/31 01:03:16;;;;;;;5.63;4.68;;;;;;;14.50;69.75;100742.34;5071176;28;20039;-66
2023/08/31 01:05:55;;;;;;;5.05;4.55;;;;;;;14.46;70.06;100736.47;5060790;28;20048;-66
2023/08/31 01:08:40;;;;;;;5.47;4.60;;;;;;;14.48;69.81;100745.41;5055337;28;20037;-66
2023/08/31 01:11:21;;;;;;;5.97;4.43;;;;;;;14.46;69.92;100735.63;5073646;28;20123;-66
2023/08/31 01:13:54;;;;;;;5.45;4.82;;;;;;;14.37;70.00;100734.53;5071148;28;20769;-65
2023/08/31 01:16:24;;;;;;;6.22;5.00;;;;;;;14.38;69.94;100731.47;5064792;28;20025;-66
2023/08/31 01:18:50;;;;;;;4.63;4.22;;;;;;;14.40;69.91;100737.59;5050736;28;20091;-66
2023/08/31 01:21:30;;;;;;;5.22;4.72;;;;;;;14.34;70.71;100738.72;5066191;28;20021;-66
2023/08/31 01:23:57;;;;;;;4.32;4.00;;;;;;;14.37;70.18;100732.56;5067784;28;20379;-66
2023/08/31 01:26:24;;;;;;;5.03;4.53;;;;;;;14.29;70.33;100738.72;5082774;28;20379;-66
2023/08/31 01:28:50;;;;;;;6.85;4.50;;;;;;;14.29;70.39;100735.94;5066387;28;20071;-66
2023/08/31 01:31:16;;;;;;;4.90;4.40;;;;;;;14.34;69.94;100746.25;5061256;28;20025;-66
2023/08/31 01:33:42;;;;;;;5.30;4.60;;;;;;;14.30;69.88;100748.75;5066024;28;20047;-67
2023/08/31 01:36:17;;;;;;;6.55;4.78;;;;;;;14.26;70.17;100747.66;5070443;28;20387;-67
2023/08/31 01:38:45;;;;;;;5.35;4.75;;;;;;;14.23;70.28;100751.88;5064514;28;20036;-66
2023/08/31 01:41:16;;;;;;;6.50;4.90;;;;;;;14.27;70.23;100754.09;5067472;28;20036;-66
2023/08/31 01:43:43;;;;;;;5.13;4.60;;;;;;;14.22;70.33;100752.97;5050525;28;20033;-66
2023/08/31 01:46:09;;;;;;;6.15;5.10;;;;;;;14.23;70.15;100757.44;5050967;28;20025;-66
2023/08/31 01:48:40;;;;;;;6.57;5.25;;;;;;;14.21;70.34;100756.03;5060039;28;20033;-66
2023/08/31 01:51:06;;;;;;;6.05;4.80;;;;;;;14.20;70.52;100754.38;5086607;28;20032;-66
2023/08/31 01:53:31;;;;;;;6.00;5.38;;;;;;;14.20;70.24;100754.38;5069478;28;20021;-67
2023/08/31 01:55:57;;;;;;;6.68;5.75;;;;;;;14.23;70.71;100762.19;5070376;28;20376;-67
2023/08/31 01:58:22;;;;;;;6.55;5.18;;;;;;;14.19;70.55;100753.53;5065684;28;20122;-66
2023/08/31 02:00:48;;;;;;;6.05;5.43;;;;;;;14.15;70.63;100751.59;5050213;28;20025;-67
2023/08/31 02:03:13;;;;;;;6.22;5.50;;;;;;;14.17;70.62;100755.75;5076077;28;20372;-66
2023/08/31 02:05:38;;;;;;;8.90;5.85;;;;;;;14.17;71.22;100752.97;5065661;28;20428;-66
2023/08/31 02:08:04;;;;;;;6.28;5.65;;;;;;;14.19;71.40;100752.72;5065572;28;20036;-66
2023/08/31 02:10:29;;;;;;;7.10;6.13;;;;;;;14.12;71.42;100764.16;5054508;28;20024;-66
2023/08/31 02:12:55;;;;;;;7.28;6.50;;;;;;;14.11;71.61;100756.91;5054755;28;20546;-65
2023/08/31 02:15:20;;;;;;;7.07;6.03;;;;;;;14.17;71.44;100760.50;5053950;28;20021;-67
2023/08/31 02:17:45;;;;;;;7.88;6.28;;;;;;;14.19;71.60;100759.13;5066030;28;20139;-66
2023/08/31 02:20:11;;;;;;;7.30;6.32;;;;;;;14.24;71.43;100766.66;5053353;28;20021;-67
2023/08/31 02:22:36;;;;;;;9.95;6.00;;;;;;;14.23;71.40;100760.25;5060305;28;20124;-66
2023/08/31 02:25:02;;;;;;;7.82;6.35;;;;;;;14.24;71.52;100759.13;5054291;28;20025;-67
2023/08/31 02:27:27;;;;;;;8.02;6.03;;;;;;;14.24;71.58;100752.69;5066085;28;20459;-68
2023/08/31 02:29:53;;;;;;;7.63;6.45;;;;;;;14.21;71.95;100756.03;5073568;28;20040;-67
2023/08/31 02:32:19;;;;;;;7.18;6.47;;;;;;;14.21;71.85;100756.88;5068945;28;20033;-67
2023/08/31 02:34:44;;;;;;;6.57;5.90;;;;;;;14.18;71.85;100762.19;5054223;28;20473;-68
2023/08/31 02:37:10;;;;;;;7.70;5.85;;;;;;;14.20;72.01;100749.63;5053036;28;20103;-67
2023/08/31 02:39:35;;;;;;;7.75;6.65;;;;;;;14.21;71.57;100756.88;5066724;28;20025;-67
2023/08/31 02:42:01;;;;;;;8.18;6.65;;;;;;;14.18;71.98;100757.44;5071020;28;20028;-67
2023/08/31 02:44:26;;;;;;;6.82;6.22;;;;;;;14.16;71.96;100762.47;5053243;28;20060;-68
2023/08/31 02:46:51;;;;;;;7.55;6.80;;;;;;;14.19;71.69;100761.09;5081768;28;20561;-67
2023/08/31 02:49:17;;;;;;;7.93;6.68;;;;;;;14.19;71.75;100764.72;5086039;28;20037;-67
2023/08/31 02:51:42;;;;;;;11.05;9.10;;;;;;;14.10;71.56;100771.13;5052806;28;20086;-67
2023/08/31 02:54:07;;;;;;;11.80;10.60;;;;;;;14.06;71.98;100761.63;5053978;28;20492;-68
2023/08/31 02:56:33;;;;;;;13.07;11.30;;;;;;;14.09;72.17;100775.03;5062725;28;20420;-68
2023/08/31 02:58:58;;;;;;;14.32;11.75;;;;;;;14.11;72.21;100772.78;5054509;28;20760;-67
2023/08/31 03:01:24;;;;;;;13.65;11.88;;;;;;;14.12;71.88;100774.47;5061793;28;20025;-67
2023/08/31 03:03:49;;;;;;;14.70;13.20;;;;;;;14.13;72.17;100767.78;5063910;28;20432;-68
2023/08/31 03:06:15;;;;;;;16.20;14.43;;;;;;;14.00;72.22;100760.78;5067535;28;20059;-67
2023/08/31 03:08:40;;;;;;;17.05;15.15;;;;;;;14.00;72.18;100766.38;5072278;28;20032;-67
2023/08/31 03:11:06;;;;;;;16.77;14.35;;;;;;;14.05;72.11;100765.53;5067932;28;20029;-67
2023/08/31 03:13:32;;;;;;;19.65;15.73;;;;;;;13.98;72.27;100766.63;5052856;28;20033;-68
2023/08/31 03:15:57;;;;;;;16.27;14.68;;;;;;;13.99;72.29;100768.34;5059796;28;20103;-68
2023/08/31 03:18:23;;;;;;;15.38;13.65;;;;;;;14.04;71.89;100763.88;5068458;28;20048;-67
2023/08/31 03:20:49;;;;;;;15.00;13.40;;;;;;;14.02;71.88;100766.09;5061923;28;20055;-67
2023/08/31 03:23:14;;;;;;;15.45;13.27;;;;;;;13.98;72.01;100774.16;5066859;28;20723;-68
2023/08/31 03:25:40;;;;;;;14.00;11.75;;;;;;;13.99;71.86;100771.13;5053452;28;20033;-67
2023/08/31 03:28:05;;;;;;;13.35;11.95;;;;;;;13.99;71.99;100775.88;5055588;28;20488;-68
2023/08/31 03:30:30;;;;;;;13.02;11.18;;;;;;;13.94;72.02;100779.47;5063787;28;20051;-68
2023/08/31 03:32:56;;;;;;;12.73;11.38;;;;;;;13.93;72.04;100774.19;5057686;28;20492;-68
2023/08/31 03:35:26;;;;;;;12.82;11.63;;;;;;;13.88;72.08;100777.81;5066142;28;20052;-67
2023/08/31 03:37:52;;;;;;;13.27;11.65;;;;;;;13.89;71.99;100770.28;5059230;28;20021;-68
2023/08/31 03:40:17;;;;;;;14.23;12.88;;;;;;;13.84;72.06;100778.66;5055348;28;20108;-67
2023/08/31 03:42:42;;;;;;;16.33;14.43;;;;;;;13.78;72.28;100766.63;5057642;28;20031;-67
2023/08/31 03:45:08;;;;;;;17.35;14.50;;;;;;;13.80;72.57;100766.38;5065989;28;20112;-67
2023/08/31 03:47:33;;;;;;;17.58;15.88;;;;;;;13.82;72.41;100762.16;5056204;28;20039;-68
2023/08/31 03:49:58;;;;;;;18.23;16.02;;;;;;;13.81;72.97;100756.88;5072636;28;20407;-67
2023/08/31 03:52:24;;;;;;;19.27;17.08;;;;;;;13.83;72.70;100763.00;5067788;28;20029;-67
2023/08/31 03:54:51;;;;;;;18.63;16.52;;;;;;;13.86;72.34;100760.50;5072295;28;20119;-67
2023/08/31 03:57:16;;;;;;;21.42;17.17;;;;;;;13.81;72.75;100757.69;5052496;28;20059;-68
2023/08/31 03:59:41;;;;;;;19.65;16.70;;;;;;;13.83;72.78;100763.81;5057886;28;20017;-67
2023/08/31 04:02:07;;;;;;;19.48;17.20;;;;;;;13.83;72.54;100763.81;5066015;28;20021;-68
2023/08/31 04:04:33;;;;;;;20.02;17.38;;;;;;;13.76;72.60;100763.28;5064740;28;20040;-68
2023/08/31 04:06:59;;;;;;;21.00;17.15;;;;;;;13.75;72.84;100761.59;5071406;28;20472;-68
2023/08/31 04:09:24;;;;;;;18.25;16.35;;;;;;;13.77;72.44;100773.31;5053988;28;20033;-67
2023/08/31 04:11:50;;;;;;;17.55;15.70;;;;;;;13.74;72.94;100774.69;5068813;28;20037;-68
2023/08/31 04:14:15;;;;;;;17.48;15.68;;;;;;;13.71;72.67;100772.44;5068135;28;20029;-67
2023/08/31 04:16:40;;;;;;;19.25;15.57;;;;;;;13.74;72.75;100769.13;5056427;28;20107;-67
2023/08/31 04:19:05;;;;;;;18.73;15.23;;;;;;;13.74;72.96;100779.44;5070153;28;20051;-68
2023/08/31 04:21:31;;;;;;;16.63;14.60;;;;;;;13.72;73.01;100779.72;5071156;28;20040;-67
2023/08/31 04:23:56;;;;;;;15.27;13.70;;;;;;;13.75;73.05;100790.34;5071923;28;20021;-67
2023/08/31 04:26:23;;;;;;;14.27;12.88;;;;;;;13.73;72.64;100795.34;5071147;28;20027;-67
2023/08/31 04:28:49;;;;;;;16.08;12.05;;;;;;;13.77;72.81;100789.22;5070028;28;20082;-67
2023/08/31 04:31:14;;;;;;;13.30;11.90;;;;;;;13.75;72.82;100789.47;5066793;28;20025;-67
2023/08/31 04:33:40;;;;;;;13.95;12.20;;;;;;;13.68;72.91;100786.16;5072732;28;20013;-67
2023/08/31 04:36:06;;;;;;;14.57;12.13;;;;;;;13.64;73.06;100790.59;5067632;28;20081;-67
2023/08/31 04:38:32;;;;;;;12.63;10.77;;;;;;;13.69;72.83;100793.38;5065431;28;20419;-67
2023/08/31 04:41:01;;;;;;;12.45;11.15;;;;;;;13.70;73.21;100797.84;5064561;28;20112;-67
2023/08/31 04:43:26;;;;;;;14.73;11.00;;;;;;;13.69;73.08;100797.00;5051185;28;20032;-68
2023/08/31 04:45:53;;;;;;;12.45;10.02;;;;;;;13.72;72.58;100798.44;5053267;28;20029;-68
2023/08/31 04:48:18;;;;;;;10.45;9.45;;;;;;;13.72;72.56;100804.84;5080523;28;20021;-68
2023/08/31 04:50:43;;;;;;;11.50;9.50;;;;;;;13.68;72.71;100794.50;5051182;28;20333;-68
2023/08/31 04:53:09;;;;;;;10.80;9.63;;;;;;;13.68;72.76;100797.31;5051301;28;20032;-67
2023/08/31 04:55:34;;;;;;;11.18;8.77;;;;;;;13.68;72.75;100797.31;5055402;28;20082;-67
2023/08/31 04:57:59;;;;;;;10.52;8.07;;;;;;;13.70;72.89;100806.22;5050215;28;20028;-67
2023/08/31 05:00:25;;;;;;;8.75;7.97;;;;;;;13.63;72.70;100808.44;5051878;28;20229;-67
2023/08/31 05:02:50;;;;;;;9.77;7.60;;;;;;;13.59;73.09;100810.09;5055226;28;20049;-67
2023/08/31 05:05:18;;;;;;;9.35;7.55;;;;;;;13.58;72.86;100820.41;5050756;28;20392;-68
2023/08/31 05:07:43;;;;;;;8.00;7.15;;;;;;;13.60;72.80;100815.41;5051495;28;20108;-67
2023/08/31 05:10:09;;;;;;;8.35;7.20;;;;;;;13.64;72.91;100819.31;5050774;28;20100;-68
2023/08/31 05:12:34;;;;;;;7.63;6.85;;;;;;;13.65;72.88;100814.59;5050854;28;20068;-67
2023/08/31 05:14:59;;;;;;;12.73;7.90;;;;;;;13.67;72.93;100820.69;5051041;28;20115;-67
2023/08/31 05:17:25;;;;;;;7.63;6.90;;;;;;;13.67;72.50;100824.31;5061556;28;20035;-67
2023/08/31 05:19:50;;;;;;;16.70;7.50;;;;;;;13.59;73.00;100826.81;5052939;28;20704;-67
2023/08/31 05:22:15;;;;;;;7.50;6.38;;;;;;;13.58;72.87;100833.50;5051557;28;20369;-68
2023/08/31 05:24:41;;;;;;;7.53;6.63;;;;;;;13.54;73.13;100835.19;5064087;28;20158;-66
2023/08/31 05:27:06;;;;;;;7.75;6.93;;;;;;;13.59;72.79;100835.19;5071184;28;20108;-67
2023/08/31 05:29:32;;;;;;;7.28;6.15;;;;;;;13.53;73.24;100836.28;5070975;28;20028;-66
2023/08/31 05:31:57;;;;;;;10.18;6.43;;;;;;;13.53;72.96;100842.72;5069006;28;20472;-66
2023/08/31 05:34:25;;;;;;;7.68;6.28;;;;;;;13.50;73.28;100848.81;5071146;28;20078;-66
2023/08/31 05:36:51;;;;;;;6.63;6.00;;;;;;;13.50;73.55;100849.66;5061198;28;20055;-66
2023/08/31 05:39:16;;;;;;;6.53;5.85;;;;;;;13.49;73.29;100852.72;5057864;28;20028;-66
2023/08/31 05:41:42;;;;;;;8.35;6.32;;;;;;;13.45;73.88;100848.81;5062673;28;20028;-67
2023/08/31 05:44:09;;;;;;;7.47;5.68;;;;;;;13.52;73.29;100860.56;5070778;28;20608;-66
2023/08/31 05:46:34;;;;;;;6.95;6.10;;;;;;;13.51;73.44;100859.69;5061278;28;20059;-66
2023/08/31 05:49:00;;;;;;;8.38;6.20;;;;;;;13.54;73.78;100863.06;5062604;28;20029;-67
2023/08/31 05:51:25;;;;;;;10.23;5.88;;;;;;;13.60;73.61;100867.56;5076757;28;20479;-66
2023/08/31 05:53:51;;;;;;;7.93;5.32;;;;;;;13.56;73.82;100867.28;5090526;28;20089;-66
2023/08/31 05:56:16;;;;;;;7.57;5.35;;;;;;;13.52;74.06;100860.56;5085388;28;20139;-66
2023/08/31 05:58:42;;;;;;;8.70;5.60;;;;;;;13.55;73.97;100864.72;5070994;28;20024;-67
2023/08/31 06:01:07;;;;;;;6.78;5.82;;;;;;;13.59;74.01;100863.91;5065461;28;20119;-66
2023/08/31 06:03:32;;;;;;;7.47;5.57;;;;;;;13.60;74.16;100859.19;5050721;28;20037;-66
2023/08/31 06:05:59;;;;;;;9.68;5.47;;;;;;;13.70;74.04;100870.38;5055896;28;20036;-66
2023/08/31 06:08:25;;;;;;;6.50;5.57;;;;;;;13.67;74.05;100868.13;5069991;28;20056;-66
2023/08/31 06:10:51;;;;;;;7.30;6.45;;;;;;;13.69;74.65;100866.75;5064589;28;20475;-67
2023/08/31 06:13:16;;;;;;;8.70;5.20;;;;;;;13.80;74.54;100864.84;5065439;28;20377;-66
2023/08/31 06:15:42;;;;;;;6.30;5.30;;;;;;;13.86;74.10;100877.66;5049773;28;20068;-65
2023/08/31 06:18:07;;;;;;;7.25;5.40;;;;;;;13.86;74.59;100872.09;5070359;28;20049;-65
2023/08/31 06:20:32;;;;;;;6.82;6.00;;;;;;;13.95;74.27;100873.25;5078212;28;20038;-65
2023/08/31 06:22:59;;;;;;;8.68;5.53;;;;;;;14.03;74.21;100880.25;5065892;28;20187;-66
2023/08/31 06:25:24;;;;;;;6.70;5.57;;;;;;;14.06;74.37;100882.47;5049918;28;20029;-66
2023/08/31 06:27:50;;;;;;;7.85;5.93;;;;;;;14.15;74.51;100880.00;5047654;28;20032;-66
2023/08/31 06:30:17;;;;;;;7.50;5.38;;;;;;;14.27;74.07;100888.94;5072360;28;20043;-67
2023/08/31 06:32:44;;;;;;;5.53;4.95;;;;;;;14.31;73.97;100892.84;5055017;28;20075;-66
2023/08/31 06:35:09;;;;;;;8.25;5.03;;;;;;;14.42;73.88;100893.69;5055784;28;20024;-67
2023/08/31 06:37:34;;;;;;;8.85;5.80;;;;;;;14.39;73.87;100892.31;5053270;28;20507;-66
2023/08/31 06:40:00;;;;;;;8.30;5.80;;;;;;;14.46;74.18;100898.47;5062328;28;20676;-65
2023/08/31 06:42:25;;;;;;;6.03;5.30;;;;;;;14.54;74.00;100896.25;5056211;28;20044;-66
2023/08/31 06:44:51;;;;;;;7.88;5.32;;;;;;;14.60;73.95;100897.94;5051741;28;20403;-65
2023/08/31 06:47:17;;;;;;;8.20;5.25;;;;;;;14.63;74.13;100903.81;5046222;28;20037;-65
2023/08/31 06:49:43;;;;;;;8.32;5.53;;;;;;;14.68;73.96;100903.78;5051150;28;20079;-65
2023/08/31 06:52:08;;;;;;;7.63;5.80;;;;;;;14.72;73.99;100904.06;5070799;28;20497;-66
2023/08/31 06:54:34;;;;;;;11.18;5.95;;;;;;;14.74;74.01;100910.22;5054623;28;20037;-66
2023/08/31 06:56:59;;;;;;;8.77;4.88;;;;;;;14.83;74.07;100914.13;5058631;28;20024;-65
2023/08/31 06:59:25;;;;;;;7.80;5.72;;;;;;;14.86;73.99;100908.00;5055109;28;20035;-66
2023/08/31 07:01:50;;;;;;;5.63;4.57;;;;;;;14.98;73.62;100913.28;5070589;28;20162;-65
2023/08/31 07:04:15;;;;;;;7.65;5.15;;;;;;;15.04;73.93;100917.75;5069021;28;20111;-66
2023/08/31 07:06:41;;;;;;;10.13;5.75;;;;;;;15.06;73.89;100906.28;5075475;28;20164;-66
2023/08/31 07:09:08;;;;;;;7.90;5.57;;;;;;;15.16;73.80;100917.44;5065632;28;20024;-65
2023/08/31 07:11:33;;;;;;;9.57;5.72;;;;;;;15.20;74.01;100912.97;5062393;28;20021;-66
2023/08/31 07:13:59;;;;;;;7.50;5.40;;;;;;;15.26;74.30;100917.44;5065134;28;20476;-66
2023/08/31 07:16:24;;;;;;;7.43;5.30;;;;;;;15.34;74.08;100918.81;5065484;28;20028;-66
2023/08/31 07:18:50;;;;;;;7.03;5.18;;;;;;;15.43;73.59;100923.53;5069790;28;20124;-66
2023/08/31 07:21:15;;;;;;;8.07;5.43;;;;;;;15.49;73.95;100921.56;5066585;28;20025;-65
2023/08/31 07:23:40;;;;;;;8.95;5.95;;;;;;;15.61;73.95;100924.06;5066497;28;20033;-64
2023/08/31 07:26:06;;;;;;;6.30;5.47;;;;;;;15.67;73.83;100920.13;5071350;28;20021;-64
2023/08/31 07:28:31;;;;;;;9.93;5.53;;;;;;;15.78;73.51;100926.53;5067731;28;20044;-64
2023/08/31 07:31:06;;;;;;;8.32;5.30;;;;;;;15.88;73.48;100927.34;5077480;28;20024;-64
2023/08/31 07:33:35;;;;;;;7.38;4.97;;;;;;;15.94;73.48;100922.53;5092840;28;20024;-64
2023/08/31 07:36:01;;;;;;;6.72;5.07;;;;;;;16.03;73.38;100923.59;5062976;28;20021;-64
2023/08/31 07:38:27;;;;;;;9.70;5.28;;;;;;;16.13;73.29;100925.53;5070250;28;20063;-65
2023/08/31 07:40:53;;;;;;;8.52;5.55;;;;;;;16.20;72.91;100926.06;5062527;28;20186;-64
2023/08/31 07:43:19;;;;;;;9.25;5.30;;;;;;;16.30;72.40;100930.75;5069879;28;20031;-64
2023/08/31 07:45:44;;;;;;;7.82;5.50;;;;;;;16.32;72.59;100934.94;5091598;28;20028;-64
2023/08/31 07:48:09;;;;;;;8.40;5.05;;;;;;;16.41;72.34;100933.19;5070799;28;20491;-65
2023/08/31 07:50:35;;;;;;;8.02;5.47;;;;;;;16.47;71.99;100931.19;5064410;28;20480;-70
2023/08/31 07:53:00;;;;;;;9.15;5.57;;;;;;;16.54;71.87;100934.50;5058419;28;20124;-69
2023/08/31 07:55:26;;;;;;;6.85;4.53;;;;;;;16.67;72.71;100931.06;5067643;28;20105;-66
2023/08/31 07:57:51;;;;;;;7.35;5.38;;;;;;;16.68;71.47;100937.50;5064608;28;20072;-66
2023/08/31 08:00:16;;;;;;;7.95;5.30;;;;;;;16.78;71.59;100929.03;5070559;28;20043;-66
2023/08/31 08:02:42;;;;;;;7.68;6.05;;;;;;;16.89;71.43;100933.41;5071683;28;20499;-66
2023/08/31 08:05:08;;;;;;;11.38;4.80;;;;;;;17.01;71.07;100933.03;5069183;28;20041;-66
2023/08/31 08:07:33;;;;;;;7.32;5.05;;;;;;;17.03;70.64;100933.56;5070082;28;20041;-66
2023/08/31 08:09:59;;;;;;;6.63;5.20;;;;;;;17.15;70.48;100941.59;5071731;28;20032;-66
2023/08/31 08:12:25;;;;;;;9.32;5.18;;;;;;;17.26;70.71;100936.75;5083898;28;20479;-66
2023/08/31 08:14:50;;;;;;;8.18;5.05;;;;;;;17.36;70.38;100945.03;5071958;28;20465;-66
2023/08/31 08:17:16;;;;;;;11.55;5.43;;;;;;;17.43;69.89;100943.53;5071617;28;20021;-66
2023/08/31 08:19:41;;;;;;;9.18;4.80;;;;;;;17.54;70.42;100938.66;5071690;28;20043;-66
2023/08/31 08:22:06;;;;;;;6.63;5.35;;;;;;;17.58;69.26;100945.34;5070744;28;20039;-66
2023/08/31 08:24:31;;;;;;;8.63;4.97;;;;;;;17.66;69.13;100941.06;5071116;28;20036;-66
2023/08/31 08:26:57;;;;;;;7.40;5.20;;;;;;;17.72;68.99;100939.84;5083166;28;20476;-66
2023/08/31 08:29:22;;;;;;;7.57;5.80;;;;;;;17.81;69.11;100943.72;5090750;28;20467;-66
2023/08/31 08:31:48;;;;;;;9.95;5.90;;;;;;;17.87;68.43;100947.28;5080100;28;20560;-66
2023/08/31 08:34:13;;;;;;;8.23;5.00;;;;;;;17.95;68.19;100948.59;5075404;28;20047;-66
2023/08/31 08:36:38;;;;;;;12.77;5.40;;;;;;;18.00;67.97;100946.59;5070990;28;20024;-66
2023/08/31 08:39:04;;;;;;;10.13;5.93;;;;;;;18.02;67.65;100951.88;5070512;28;20541;-66
2023/08/31 08:41:30;;;;;;;12.13;5.47;;;;;;;18.14;67.82;100957.91;5070138;28;20132;-66
2023/08/31 08:43:59;;;;;;;7.47;5.25;;;;;;;18.22;67.71;100954.41;5070342;28;20476;-66
2023/08/31 08:46:25;;;;;;;8.77;5.22;;;;;;;18.31;67.61;100957.38;5070921;28;20024;-67
2023/08/31 08:48:51;;;;;;;6.85;4.28;;;;;;;18.40;67.26;100962.03;5080250;28;20498;-66
2023/08/31 08:51:16;;;;;;;7.93;5.10;;;;;;;18.50;67.16;100960.19;5068455;28;20024;-66
2023/08/31 08:53:43;;;;;;;11.60;4.93;;;;;;;18.52;66.25;100960.75;5071071;28;20032;-67
2023/08/31 08:56:08;;;;;;;13.00;5.00;;;;;;;18.65;65.74;100960.81;5070143;28;20442;-66
2023/08/31 08:58:34;;;;;;;8.80;4.78;;;;;;;18.72;65.43;100963.28;5070410;28;20107;-66
2023/08/31 09:00:59;;;;;;;8.95;4.93;;;;;;;18.78;66.00;100956.41;5072933;28;20035;-66
2023/08/31 09:03:25;;;;;;;8.90;4.82;;;;;;;18.91;66.04;100965.25;5089914;28;20035;-66
2023/08/31 09:05:53;;;;;;;7.03;4.72;;;;;;;18.98;65.03;100962.84;5090669;28;20028;-66
2023/08/31 09:08:26;;;;;;;8.90;4.47;;;;;;;19.06;65.05;100963.00;5067596;28;20024;-66
2023/08/31 09:10:52;;;;;;;7.80;4.40;;;;;;;19.12;64.73;100967.38;5069230;28;20033;-66
2023/08/31 09:13:18;;;;;;;10.48;4.82;;;;;;;19.17;65.07;100968.44;5070394;28;20032;-67
2023/08/31 09:15:45;;;;;;;7.18;5.13;;;;;;;19.16;64.33;100976.03;5065306;28;20032;-66
2023/08/31 09:18:34;;;;;;;5.32;4.07;;;;;;;19.26;65.16;100970.25;5049432;28;20041;-66
2023/08/31 09:21:00;;;;;;;9.45;4.20;;;;;;;19.34;63.63;100971.53;5085664;28;20115;-66
2023/08/31 09:23:26;;;;;;;8.05;4.07;;;;;;;19.36;64.47;100967.22;5083355;28;20124;-66
2023/08/31 09:25:54;;;;;;;7.85;4.05;;;;;;;19.38;63.84;100976.22;5068746;28;20115;-67
2023/08/31 09:28:21;;;;;;;10.02;4.43;;;;;;;19.46;64.45;100977.47;5070603;28;20066;-66
2023/08/31 09:30:48;;;;;;;6.65;3.63;;;;;;;19.52;63.52;100978.22;5069643;28;20044;-66
2023/08/31 09:33:20;;;;;;;5.85;4.10;;;;;;;19.55;62.70;100983.22;5070257;28;20535;-66
2023/08/31 09:35:50;;;;;;;8.20;4.07;;;;;;;19.60;62.26;100974.69;5077782;28;20039;-65
2023/08/31 09:38:16;;;;;;;8.00;3.63;;;;;;;19.65;62.31;100971.81;5089731;28;20024;-66
2023/08/31 09:40:41;;;;;;;9.35;4.20;;;;;;;19.61;62.81;100980.03;5071033;28;20098;-66
2023/08/31 09:43:07;;;;;;;7.85;4.32;;;;;;;19.56;62.85;100976.44;5089786;28;20032;-66
2023/08/31 09:45:34;;;;;;;8.80;4.05;;;;;;;19.58;62.71;100982.63;5089646;28;20115;-65
2023/08/31 09:48:01;;;;;;;7.70;3.80;;;;;;;19.69;63.00;100972.84;5090352;28;20123;-66
2023/08/31 09:50:29;;;;;;;9.70;4.10;;;;;;;19.74;62.45;100986.00;5090300;28;20066;-66
2023/08/31 09:52:56;;;;;;;7.18;4.22;;;;;;;19.74;60.82;100984.00;5065543;28;20768;-66
2023/08/31 09:55:25;;;;;;;6.72;3.80;;;;;;;19.78;60.67;100989.88;5050458;28;20029;-65
2023/08/31 09:57:54;;;;;;;9.60;3.67;;;;;;;19.83;59.18;100984.13;5062620;28;20032;-66
2023/08/31 10:00:20;;;;;;;7.35;3.92;;;;;;;19.73;59.47;100993.63;5069480;28;20020;-66
2023/08/31 10:02:46;;;;;;;6.68;3.80;;;;;;;19.66;60.45;100989.53;5069497;28;20115;-66
2023/08/31 10:05:12;;;;;;;7.68;3.90;;;;;;;19.54;58.78;100987.19;5074967;28;20387;-65
2023/08/31 10:07:38;;;;;;;9.43;3.70;;;;;;;19.51;59.36;100985.00;5058841;28;20039;-65
2023/08/31 10:10:04;;;;;;;7.95;3.75;;;;;;;19.54;59.91;100985.22;5066114;28;20024;-65
2023/08/31 10:12:30;;;;;;;6.45;3.40;;;;;;;19.66;59.68;100990.38;5061126;28;20039;-65
2023/08/31 10:14:57;;;;;;;9.00;3.40;;;;;;;19.76;59.26;100992.97;5074510;28;20537;-66
2023/08/31 10:17:24;;;;;;;6.75;3.30;;;;;;;19.79;58.85;100986.72;5059851;28;20029;-66
2023/08/31 10:19:49;;;;;;;7.68;2.80;;;;;;;19.88;57.60;100978.38;5059001;28;20033;-65
2023/08/31 10:22:15;;;;;;;7.95;3.30;;;;;;;19.94;57.80;100979.13;5059993;28;20037;-64
2023/08/31 10:25:03;;;;;;;5.75;2.95;;;;;;;19.84;57.85;100992.25;5054187;28;20357;-65
2023/08/31 10:27:35;;;;;;;4.35;2.58;;;;;;;19.74;55.87;100983.19;5062659;28;20050;-65
2023/08/31 10:30:33;;;;;;;5.68;2.60;;;;;;;19.60;57.20;100986.75;5054256;28;20060;-66
2023/08/31 10:33:04;;;;;;;6.75;3.58;;;;;;;19.42;57.16;100987.69;5065370;28;20025;-64
2023/08/31 10:35:41;;;;;;;7.72;3.28;;;;;;;19.43;58.78;100988.53;5054302;28;20118;-64
2023/08/31 10:38:27;;;;;;;7.88;3.28;;;;;;;19.54;58.56;100978.75;5072692;28;20037;-63
2023/08/31 10:41:05;;;;;;;10.10;3.00;;;;;;;19.68;58.76;100968.34;5067276;28;20033;-64
2023/08/31 10:43:45;;;;;;;8.32;2.92;;;;;;;19.82;58.43;100972.03;5066589;28;20521;-65
2023/08/31 10:46:32;;;;;;;6.03;3.10;;;;;;;19.89;57.30;100962.34;5057971;28;20025;-64
2023/08/31 10:48:59;;;;;;;5.85;2.60;;;;;;;20.00;56.41;100964.63;5068895;28;20041;-64
2023/08/31 10:51:26;;;;;;;4.70;2.70;;;;;;;20.03;55.28;100957.50;5060628;28;20025;-64
2023/08/31 10:53:52;;;;;;;5.32;2.55;;;;;;;19.97;53.85;100965.25;5057841;28;20128;-63
2023/08/31 10:56:18;;;;;;;5.45;2.83;;;;;;;19.93;53.09;100955.75;5067790;28;20080;-63
2023/08/31 10:58:58;;;;;;;5.63;2.40;;;;;;;20.02;54.57;100950.22;5068880;28;20103;-64
2023/08/31 11:01:53;;;;;;;6.88;2.80;;;;;;;20.07;54.69;100952.91;5060646;28;20057;-66
2023/08/31 11:04:18;;;;;;;4.30;2.45;;;;;;;20.15;53.69;100957.81;5057088;28;20090;-65
2023/08/31 11:06:43;;;;;;;5.47;2.88;;;;;;;20.14;52.97;100950.50;5086579;28;20040;-65
2023/08/31 11:09:20;;;;;;;5.85;2.65;;;;;;;20.04;54.00;100948.75;5064913;28;20031;-65
2023/08/31 11:11:45;;;;;;;5.18;2.65;;;;;;;19.91;52.76;100957.19;5092317;28;20077;-65
2023/08/31 11:14:10;;;;;;;4.45;2.38;;;;;;;19.81;53.22;100955.44;5079742;28;20024;-65
2023/08/31 11:16:38;;;;;;;6.05;2.35;;;;;;;19.74;54.81;100955.84;5073976;28;20139;-66
2023/08/31 11:19:04;;;;;;;5.80;2.75;;;;;;;19.70;55.08;100965.25;5064816;28;20044;-66
2023/08/31 11:21:31;;;;;;;4.93;2.80;;;;;;;19.73;55.27;100956.16;5072543;28;20103;-66